createdAt,value
2019-01-23T00:00:31.318Z,47.13
2019-01-23T00:03:01.515Z,48.33
2019-01-23T00:05:30.479Z,46.20
2019-01-23T00:07:59.025Z,46.40
2019-01-23T00:10:27.712Z,52.73
2019-01-23T00:12:56.242Z,49.47
2019-01-23T00:15:25.024Z,50.13
2019-01-23T00:17:54.921Z,50.20
2019-01-23T00:20:23.448Z,50.67
2019-01-23T00:22:52.024Z,50.53
2019-01-23T00:25:20.799Z,49.97
2019-01-23T00:27:49.473Z,45.50
2019-01-23T00:30:18.301Z,51.43
2019-01-23T00:32:46.789Z,50.57
2019-01-23T00:35:15.407Z,48.00
2019-01-23T00:37:44.252Z,49.87
2019-01-23T00:40:16.978Z,48.50
2019-01-23T00:42:45.572Z,50.93
2019-01-23T00:45:16.004Z,43.17
2019-01-23T00:47:46.172Z,51.47
2019-01-23T00:50:35.594Z,45.90
2019-01-23T00:53:04.334Z,43.77
2019-01-23T00:55:32.960Z,42.10
2019-01-23T00:58:01.572Z,42.90
2019-01-23T01:00:30.244Z,43.53
2019-01-23T01:02:58.903Z,44.30
2019-01-23T01:05:27.504Z,43.83
2019-01-23T01:07:56.248Z,43.47
2019-01-23T01:10:24.957Z,43.90
2019-01-23T01:12:53.564Z,41.23
2019-01-23T01:15:22.288Z,40.17
2019-01-23T01:17:52.372Z,43.57
2019-01-23T01:20:20.989Z,42.80
2019-01-23T01:22:51.055Z,41.83
2019-01-23T01:25:19.711Z,42.87
2019-01-23T01:27:48.470Z,42.37
2019-01-23T01:30:19.395Z,44.03
2019-01-23T01:32:48.027Z,40.13
2019-01-23T01:35:16.498Z,42.47
2019-01-23T01:37:45.416Z,45.97
2019-01-23T01:40:16.120Z,46.63
2019-01-23T01:42:44.726Z,47.97
2019-01-23T01:45:15.499Z,45.73
2019-01-23T01:47:44.027Z,42.63
2019-01-23T01:50:18.264Z,42.73
2019-01-23T01:52:46.911Z,50.03
2019-01-23T01:55:15.546Z,40.87
2019-01-23T01:57:44.155Z,47.90
2019-01-23T02:00:15.647Z,50.13
2019-01-23T02:02:45.930Z,42.03
2019-01-23T02:05:14.939Z,39.77
2019-01-23T02:07:47.015Z,42.43
2019-01-23T02:10:18.246Z,45.27
2019-01-23T02:12:47.122Z,39.03
2019-01-23T02:15:16.291Z,48.77
2019-01-23T02:17:44.916Z,46.03
2019-01-23T02:20:19.269Z,48.00
2019-01-23T02:22:48.167Z,41.77
2019-01-23T02:25:16.834Z,50.13
2019-01-23T02:27:46.411Z,48.97
2019-01-23T02:30:17.859Z,47.80
2019-01-23T02:32:46.308Z,46.67
2019-01-23T02:35:14.987Z,47.43
2019-01-23T02:37:43.658Z,44.33
2019-01-23T02:40:15.271Z,46.50
2019-01-23T02:42:43.878Z,44.80
2019-01-23T02:45:14.810Z,49.27
2019-01-23T02:47:44.862Z,52.43
2019-01-23T02:50:14.363Z,50.13
2019-01-23T02:52:45.725Z,54.03
2019-01-23T02:55:14.462Z,51.00
2019-01-23T02:57:43.138Z,53.73
2019-01-23T03:00:16.995Z,53.00
2019-01-23T03:02:46.507Z,56.50
2019-01-23T03:05:20.947Z,57.13
2019-01-23T03:07:49.991Z,52.90
2019-01-23T03:10:19.985Z,52.87
2019-01-23T03:12:49.861Z,54.47
2019-01-23T03:15:20.100Z,55.20
2019-01-23T03:17:48.652Z,59.10
2019-01-23T03:20:19.883Z,58.27
2019-01-23T03:22:50.345Z,55.30
2019-01-23T03:25:19.192Z,53.63
2019-01-23T03:27:48.129Z,55.37
2019-01-23T03:30:21.227Z,54.40
2019-01-23T03:32:51.435Z,54.53
2019-01-23T03:35:20.891Z,52.50
2019-01-23T03:37:49.795Z,57.80
2019-01-23T03:40:19.990Z,53.00
2019-01-23T03:42:51.726Z,51.87
2019-01-23T03:45:20.440Z,52.87
2019-01-23T03:47:49.260Z,54.47
2019-01-23T03:50:19.171Z,50.47
2019-01-23T03:52:48.125Z,58.73
2019-01-23T03:55:18.693Z,48.40
2019-01-23T03:57:47.408Z,51.97
2019-01-23T04:00:20.537Z,50.33
2019-01-23T04:02:51.100Z,45.23
2019-01-23T04:05:20.043Z,49.30
2019-01-23T04:07:48.807Z,51.53
2019-01-23T04:10:20.703Z,46.23
2019-01-23T04:13:10.114Z,52.63
2019-01-23T04:15:38.727Z,46.53
2019-01-23T04:18:08.890Z,47.73
2019-01-23T04:20:39.136Z,46.07
2019-01-23T04:23:07.781Z,39.80
2019-01-23T04:25:36.567Z,45.07
2019-01-23T04:28:05.175Z,44.70
2019-01-23T04:30:33.770Z,45.73
2019-01-23T04:33:06.322Z,43.97
2019-01-23T04:35:34.828Z,47.33
2019-01-23T04:38:03.414Z,48.23
2019-01-23T04:40:31.868Z,44.73
2019-01-23T04:43:01.585Z,45.60
2019-01-23T04:45:30.272Z,44.97
2019-01-23T04:47:58.726Z,49.80
2019-01-23T04:50:27.454Z,48.40
2019-01-23T04:52:57.616Z,47.67
2019-01-23T04:55:26.387Z,45.73
2019-01-23T04:57:54.898Z,49.37
2019-01-23T05:00:25.274Z,50.67
2019-01-23T05:02:54.121Z,48.37
2019-01-23T05:05:22.675Z,52.90
2019-01-23T05:07:57.270Z,50.33
2019-01-23T05:10:25.947Z,53.97
2019-01-23T05:12:56.116Z,50.83
2019-01-23T05:15:24.969Z,44.23
2019-01-23T05:17:53.513Z,52.00
2019-01-23T05:20:22.198Z,53.23
2019-01-23T05:22:50.894Z,49.70
2019-01-23T05:25:19.467Z,46.73
2019-01-23T05:27:50.093Z,45.73
2019-01-23T05:30:24.255Z,51.20
2019-01-23T05:32:52.723Z,52.20
2019-01-23T05:35:21.647Z,51.43
2019-01-23T05:37:50.197Z,52.47
2019-01-23T05:40:21.598Z,51.00
2019-01-23T05:42:50.210Z,48.87
2019-01-23T05:45:20.319Z,51.03
2019-01-23T05:47:51.654Z,45.67
2019-01-23T05:50:23.093Z,54.67
2019-01-23T05:52:51.717Z,52.83
2019-01-23T05:55:20.309Z,48.53
2019-01-23T05:57:49.051Z,48.53
2019-01-23T06:00:22.665Z,49.37
2019-01-23T06:02:51.288Z,45.93
2019-01-23T06:05:20.654Z,45.43
2019-01-23T06:07:50.833Z,46.60
2019-01-23T06:10:19.406Z,45.07
2019-01-23T06:12:48.058Z,44.30
2019-01-23T06:15:17.105Z,47.90
2019-01-23T06:17:45.619Z,44.13
2019-01-23T06:20:21.659Z,47.23
2019-01-23T06:22:51.782Z,49.57
2019-01-23T06:25:20.453Z,47.67
2019-01-23T06:27:48.966Z,52.30
2019-01-23T06:30:22.826Z,51.37
2019-01-23T06:32:51.294Z,50.50
2019-01-23T06:35:20.083Z,52.23
2019-01-23T06:37:48.949Z,48.90
2019-01-23T06:40:18.351Z,44.60
2019-01-23T06:43:07.855Z,53.73
2019-01-23T06:45:36.379Z,49.00
2019-01-23T06:48:05.389Z,50.53
2019-01-23T06:50:33.902Z,52.33
2019-01-23T06:53:02.370Z,44.50
2019-01-23T06:55:30.891Z,50.07
2019-01-23T06:57:59.371Z,44.03
2019-01-23T07:00:27.834Z,53.70
2019-01-23T07:02:56.362Z,53.17
2019-01-23T07:05:24.987Z,57.27
2019-01-23T07:07:53.611Z,55.40
2019-01-23T07:10:23.805Z,54.43
2019-01-23T07:12:52.340Z,49.10
2019-01-23T07:15:21.053Z,51.17
2019-01-23T07:17:49.576Z,54.23
2019-01-23T07:20:23.066Z,57.03
2019-01-23T07:22:51.661Z,54.73
2019-01-23T07:25:20.423Z,51.30
2019-01-23T07:27:48.951Z,48.00
2019-01-23T07:30:24.255Z,56.30
2019-01-23T07:32:53.427Z,57.40
2019-01-23T07:35:21.891Z,49.37
2019-01-23T07:37:50.426Z,55.47
2019-01-23T07:40:18.951Z,57.83
2019-01-23T07:42:47.474Z,52.77
2019-01-23T07:45:18.870Z,53.73
2019-01-23T07:47:47.390Z,51.07
2019-01-23T07:50:16.493Z,59.37
2019-01-23T07:52:45.299Z,54.67
2019-01-23T07:55:16.278Z,53.57
2019-01-23T07:57:44.753Z,53.87
2019-01-23T08:00:19.081Z,57.37
2019-01-23T08:02:47.937Z,55.60
2019-01-23T08:05:19.583Z,54.70
2019-01-23T08:07:48.507Z,55.73
2019-01-23T08:10:18.869Z,47.43
2019-01-23T08:12:47.554Z,56.33
2019-01-23T08:15:27.187Z,60.63
2019-01-23T08:17:55.783Z,54.57
2019-01-23T08:20:27.397Z,56.33
2019-01-23T08:22:56.103Z,59.53
2019-01-23T08:25:25.035Z,51.70
2019-01-23T08:27:53.731Z,50.20
2019-01-23T08:30:24.091Z,54.63
2019-01-23T08:32:52.704Z,55.30
2019-01-23T08:35:22.141Z,50.97
2019-01-23T08:37:50.833Z,54.13
2019-01-23T08:40:19.699Z,50.37
2019-01-23T08:42:48.384Z,47.73
2019-01-23T08:45:16.978Z,50.43
2019-01-23T08:47:45.437Z,55.53
2019-01-23T08:50:19.806Z,48.50
2019-01-23T08:52:48.603Z,45.93
2019-01-23T08:55:17.160Z,50.17
2019-01-23T08:57:45.692Z,50.27
2019-01-23T09:00:16.513Z,45.80
2019-01-23T09:02:45.217Z,49.60
2019-01-23T09:05:14.040Z,46.73
2019-01-23T09:07:42.799Z,53.47
2019-01-23T09:10:14.681Z,42.83
2019-01-23T09:12:43.186Z,46.87
2019-01-23T09:15:14.720Z,44.47
2019-01-23T09:17:43.178Z,49.57
2019-01-23T09:20:17.287Z,51.97
2019-01-23T09:22:45.835Z,49.73
2019-01-23T09:25:20.239Z,49.57
2019-01-23T09:27:48.851Z,53.90
2019-01-23T09:30:29.079Z,47.20
2019-01-23T09:33:26.716Z,53.67
2019-01-23T09:36:04.447Z,51.57
2019-01-23T09:38:52.595Z,54.10
2019-01-23T09:41:26.908Z,54.80
2019-01-23T09:44:13.349Z,56.13
2019-01-23T09:46:56.967Z,63.17
2019-01-23T09:49:28.642Z,64.17
2019-01-23T09:52:21.066Z,62.33
2019-01-23T09:54:49.749Z,60.17
2019-01-23T09:57:18.225Z,60.27
2019-01-23T09:59:46.755Z,68.23
2019-01-23T10:02:15.399Z,71.37
2019-01-23T10:04:43.961Z,68.90
2019-01-23T10:07:12.633Z,66.63
2019-01-23T10:09:41.282Z,67.17
2019-01-23T10:12:09.828Z,73.73
2019-01-23T10:14:38.747Z,65.53
2019-01-23T10:17:07.697Z,68.23
2019-01-23T10:19:36.206Z,67.13
2019-01-23T10:22:05.027Z,70.43
2019-01-23T10:24:36.038Z,65.30
2019-01-23T10:27:04.078Z,70.23
2019-01-23T10:29:32.540Z,70.37
2019-01-23T10:32:01.014Z,74.70
2019-01-23T10:34:29.515Z,67.23
2019-01-23T10:36:58.117Z,69.30
2019-01-23T10:39:26.616Z,69.90
2019-01-23T10:41:55.145Z,62.80
2019-01-23T10:44:23.677Z,64.40
2019-01-23T10:46:52.204Z,61.27
2019-01-23T10:49:20.760Z,65.07
2019-01-23T10:51:49.249Z,63.97
2019-01-23T10:54:17.750Z,49.60
2019-01-23T10:56:46.567Z,56.17
2019-01-23T10:59:15.046Z,53.23
2019-01-23T11:01:43.718Z,50.10
2019-01-23T11:04:12.518Z,48.00
2019-01-23T11:06:41.055Z,43.73
2019-01-23T11:09:09.765Z,54.10
2019-01-23T11:11:38.301Z,48.97
2019-01-23T11:14:06.760Z,48.23
2019-01-23T11:16:35.406Z,47.07
2019-01-23T11:19:04.220Z,51.80
2019-01-23T11:21:32.687Z,46.13
2019-01-23T11:24:01.459Z,40.53
2019-01-23T11:26:30.060Z,46.87
2019-01-23T11:28:58.527Z,46.07
2019-01-23T11:31:27.172Z,44.23
2019-01-23T11:33:55.722Z,42.53
2019-01-23T11:36:24.239Z,42.40
2019-01-23T11:38:52.773Z,36.97
2019-01-23T11:41:21.422Z,41.87
2019-01-23T11:43:49.965Z,43.83
2019-01-23T11:46:18.567Z,38.07
2019-01-23T11:48:47.039Z,40.73
2019-01-23T11:51:15.631Z,37.03
2019-01-23T11:53:44.097Z,41.40
2019-01-23T11:56:12.627Z,40.00
2019-01-23T11:58:41.127Z,39.10
2019-01-23T12:01:09.594Z,36.77
2019-01-23T12:03:38.134Z,34.13
2019-01-23T12:06:06.893Z,30.93
2019-01-23T12:08:35.376Z,35.77
2019-01-23T12:11:03.913Z,34.17
2019-01-23T12:13:32.538Z,31.03
2019-01-23T12:16:01.069Z,32.90
2019-01-23T12:18:29.549Z,31.80
2019-01-23T12:20:58.156Z,31.80
2019-01-23T12:23:26.620Z,29.63
2019-01-23T12:25:55.159Z,29.23
2019-01-23T12:28:23.772Z,26.37
2019-01-23T12:30:52.234Z,25.83
2019-01-23T12:33:20.790Z,23.17
2019-01-23T12:35:49.557Z,23.73
2019-01-23T12:38:18.094Z,21.90
2019-01-23T12:40:46.548Z,24.27
2019-01-23T12:43:15.438Z,28.00
2019-01-23T12:45:43.956Z,22.50
2019-01-23T12:48:12.501Z,24.57
2019-01-23T12:50:41.125Z,21.37
2019-01-23T12:53:09.670Z,23.17
2019-01-23T12:55:38.141Z,22.33
2019-01-23T12:58:06.856Z,25.53
2019-01-23T13:00:35.513Z,21.73
2019-01-23T13:03:04.374Z,20.90
2019-01-23T13:05:33.039Z,19.80
2019-01-23T13:08:01.638Z,23.67
2019-01-23T13:10:30.256Z,18.73
2019-01-23T13:12:59.216Z,20.10
2019-01-23T13:15:28.364Z,20.80
2019-01-23T13:17:57.359Z,22.43
2019-01-23T13:20:27.846Z,22.47
2019-01-23T13:22:56.308Z,20.57
2019-01-23T13:25:26.803Z,23.87
2019-01-23T13:27:57.228Z,19.83
2019-01-23T13:30:26.750Z,24.30
2019-01-23T13:32:55.671Z,20.63
2019-01-23T13:35:29.558Z,21.30
2019-01-23T13:37:58.249Z,20.97
2019-01-23T13:40:34.672Z,21.93
2019-01-23T13:43:03.482Z,21.87
2019-01-23T13:45:31.945Z,23.97
2019-01-23T13:48:00.623Z,23.30
2019-01-23T13:50:29.143Z,23.87
2019-01-23T13:52:57.706Z,25.90
2019-01-23T13:55:26.259Z,24.47
2019-01-23T13:57:54.782Z,26.30
2019-01-23T14:00:29.300Z,27.53
2019-01-23T14:02:58.113Z,25.03
2019-01-23T14:05:27.049Z,26.67
2019-01-23T14:07:55.505Z,26.07
2019-01-23T14:10:24.101Z,25.33
2019-01-23T14:12:52.859Z,26.57
2019-01-23T14:15:24.627Z,29.53
2019-01-23T14:17:53.159Z,27.33
2019-01-23T14:20:21.979Z,26.70
2019-01-23T14:22:50.579Z,28.37
2019-01-23T14:25:19.104Z,24.07
2019-01-23T14:27:47.860Z,28.00
2019-01-23T14:30:37.278Z,27.77
2019-01-23T14:33:05.979Z,27.07
2019-01-23T14:35:35.791Z,27.10
2019-01-23T14:38:04.793Z,27.83
2019-01-23T14:40:33.380Z,25.93
2019-01-23T14:43:01.999Z,25.87
2019-01-23T14:45:30.507Z,29.03
2019-01-23T14:47:59.072Z,26.23
2019-01-23T14:50:27.613Z,28.33
2019-01-23T14:52:56.204Z,28.93
2019-01-23T14:55:24.731Z,28.13
2019-01-23T14:57:53.350Z,29.13
2019-01-23T15:00:30.360Z,30.27
2019-01-23T15:02:58.821Z,28.60
2019-01-23T15:05:27.447Z,29.50
2019-01-23T15:07:55.975Z,31.53
2019-01-23T15:10:27.029Z,29.67
2019-01-23T15:12:55.793Z,29.03
2019-01-23T15:15:24.485Z,32.67
2019-01-23T15:17:53.758Z,32.53
2019-01-23T15:20:28.040Z,31.30
2019-01-23T15:22:56.801Z,31.57
2019-01-23T15:25:25.536Z,29.53
2019-01-23T15:27:53.999Z,29.33
2019-01-23T15:30:23.760Z,31.57
2019-01-23T15:32:52.445Z,32.00
2019-01-23T15:35:21.948Z,30.63
2019-01-23T15:37:50.482Z,28.73
2019-01-23T15:40:21.882Z,29.47
2019-01-23T15:42:50.483Z,31.90
2019-01-23T15:45:19.237Z,36.83
2019-01-23T15:47:47.841Z,30.23
2019-01-23T15:50:25.281Z,33.33
2019-01-23T15:52:53.883Z,31.73
2019-01-23T15:55:24.207Z,33.20
2019-01-23T15:58:12.066Z,31.17
2019-01-23T16:00:40.570Z,32.23
2019-01-23T16:03:09.184Z,33.57
2019-01-23T16:05:37.849Z,33.67
2019-01-23T16:08:06.380Z,31.70
2019-01-23T16:10:35.079Z,29.73
2019-01-23T16:13:03.699Z,32.43
2019-01-23T16:15:34.055Z,31.00
2019-01-23T16:18:02.563Z,32.30
2019-01-23T16:20:31.125Z,31.70
2019-01-23T16:22:59.769Z,31.07
2019-01-23T16:25:28.315Z,33.20
2019-01-23T16:27:57.014Z,33.53
2019-01-23T16:30:28.838Z,35.30
2019-01-23T16:32:57.447Z,32.67
2019-01-23T16:35:25.981Z,33.80
2019-01-23T16:37:54.628Z,30.47
2019-01-23T16:40:23.145Z,31.43
2019-01-23T16:42:51.685Z,33.63
2019-01-23T16:45:21.484Z,30.97
2019-01-23T16:47:49.995Z,34.13
2019-01-23T16:50:21.371Z,40.37
2019-01-23T16:52:50.089Z,32.23
2019-01-23T16:55:18.948Z,34.13
2019-01-23T16:57:48.748Z,35.73
2019-01-23T17:00:20.287Z,34.50
2019-01-23T17:02:49.071Z,35.67
2019-01-23T17:05:23.340Z,36.13
2019-01-23T17:07:51.972Z,37.60
2019-01-23T17:10:22.987Z,37.33
2019-01-23T17:12:51.617Z,38.20
2019-01-23T17:15:20.139Z,39.57
2019-01-23T17:17:48.876Z,35.87
2019-01-23T17:20:26.219Z,39.27
2019-01-23T17:22:55.024Z,42.53
2019-01-23T17:25:23.617Z,42.87
2019-01-23T17:27:52.136Z,41.00
2019-01-23T17:30:21.736Z,39.43
2019-01-23T17:32:50.380Z,43.03
2019-01-23T17:35:22.300Z,43.63
2019-01-23T17:37:50.876Z,39.83
2019-01-23T17:40:23.902Z,42.97
2019-01-23T17:42:52.503Z,42.43
2019-01-23T17:45:32.743Z,39.43
2019-01-23T17:48:01.462Z,45.00
2019-01-23T17:50:30.276Z,41.60
2019-01-23T17:52:58.791Z,45.30
2019-01-23T17:55:35.798Z,45.73
2019-01-23T17:58:06.325Z,46.50
2019-01-23T18:00:37.040Z,43.93
2019-01-23T18:03:06.046Z,44.10
2019-01-23T18:05:34.703Z,43.90
2019-01-23T18:08:03.520Z,41.63
2019-01-23T18:10:32.393Z,44.33
2019-01-23T18:13:01.467Z,44.00
2019-01-23T18:15:35.355Z,44.70
2019-01-23T18:18:04.370Z,43.37
2019-01-23T18:20:35.967Z,41.47
2019-01-23T18:23:04.674Z,43.33
2019-01-23T18:25:33.449Z,48.70
2019-01-23T18:28:02.044Z,42.93
2019-01-23T18:30:37.608Z,46.27
2019-01-23T18:33:09.494Z,44.27
2019-01-23T18:35:50.235Z,38.73
2019-01-23T18:38:30.393Z,44.10
2019-01-23T18:41:18.378Z,46.13
2019-01-23T18:44:06.919Z,42.20
2019-01-23T18:46:41.089Z,43.97
2019-01-23T18:49:33.854Z,37.37
2019-01-23T18:52:08.290Z,41.43
2019-01-23T18:54:36.797Z,41.27
2019-01-23T18:57:06.572Z,41.73
2019-01-23T18:59:35.034Z,40.27
2019-01-23T19:02:03.797Z,38.10
2019-01-23T19:04:32.494Z,37.40
2019-01-23T19:07:01.025Z,40.00
2019-01-23T19:09:29.553Z,42.57
2019-01-23T19:11:58.178Z,37.23
2019-01-23T19:14:26.792Z,39.97
2019-01-23T19:16:55.325Z,38.23
2019-01-23T19:19:24.089Z,40.53
2019-01-23T19:21:55.149Z,36.53
2019-01-23T19:24:24.468Z,37.00
2019-01-23T19:26:54.326Z,42.30
2019-01-23T19:29:22.793Z,32.57
2019-01-23T19:31:53.104Z,38.73
2019-01-23T19:34:21.894Z,36.33
2019-01-23T19:36:51.968Z,36.83
2019-01-23T19:39:20.693Z,36.47
2019-01-23T19:41:49.463Z,37.70
2019-01-23T19:44:17.997Z,34.57
2019-01-23T19:46:48.002Z,32.40
2019-01-23T19:49:18.360Z,34.77
2019-01-23T19:51:50.023Z,32.07
2019-01-23T19:54:22.711Z,35.90
2019-01-23T19:56:52.879Z,33.93
2019-01-23T19:59:21.563Z,33.40
2019-01-23T20:01:50.214Z,34.43
2019-01-23T20:04:18.827Z,39.13
2019-01-23T20:06:47.520Z,33.77
2019-01-23T20:09:19.570Z,28.83
2019-01-23T20:11:48.171Z,33.13
2019-01-23T20:14:16.678Z,33.93
2019-01-23T20:16:45.395Z,32.47
2019-01-23T20:19:14.013Z,32.73
2019-01-23T20:21:42.532Z,34.20
2019-01-23T20:24:11.172Z,34.30
2019-01-23T20:26:39.646Z,34.90
2019-01-23T20:29:08.247Z,34.00
2019-01-23T20:31:36.986Z,32.63
2019-01-23T20:34:06.166Z,28.87
2019-01-23T20:36:34.760Z,35.67
2019-01-23T20:39:06.453Z,35.50
2019-01-23T20:41:35.283Z,33.20
2019-01-23T20:44:05.414Z,31.87
2019-01-23T20:46:33.942Z,34.00
2019-01-23T20:49:02.425Z,31.77
2019-01-23T20:51:31.243Z,35.20
2019-01-23T20:53:59.782Z,34.63
2019-01-23T20:56:28.616Z,33.50
2019-01-23T20:58:57.379Z,30.87
2019-01-23T21:01:25.878Z,32.13
2019-01-23T21:03:54.348Z,36.27
2019-01-23T21:06:23.071Z,32.00
2019-01-23T21:08:51.601Z,32.17
2019-01-23T21:11:20.275Z,35.33
2019-01-23T21:13:48.807Z,32.17
2019-01-23T21:16:17.397Z,34.23
2019-01-23T21:18:45.845Z,30.83
2019-01-23T21:21:14.307Z,34.63
2019-01-23T21:23:42.836Z,29.57
2019-01-23T21:26:11.316Z,33.73
2019-01-23T21:28:39.777Z,29.77
2019-01-23T21:31:08.288Z,34.53
2019-01-23T21:33:42.049Z,30.97
2019-01-23T21:36:07.172Z,32.73
2019-01-23T21:38:35.869Z,31.07
2019-01-23T21:41:04.533Z,35.00
2019-01-23T21:43:33.119Z,29.93
2019-01-23T21:46:01.620Z,28.67
2019-01-23T21:48:30.094Z,31.33
2019-01-23T21:50:58.775Z,33.00
2019-01-23T21:53:27.407Z,30.47
2019-01-23T21:55:55.880Z,33.43
2019-01-23T21:58:24.403Z,31.03
2019-01-23T22:00:52.949Z,32.10
2019-01-23T22:03:21.597Z,33.03
2019-01-23T22:05:50.264Z,33.23
2019-01-23T22:08:18.729Z,33.03
2019-01-23T22:10:47.332Z,32.97
2019-01-23T22:13:16.148Z,36.20
2019-01-23T22:15:44.678Z,33.83
2019-01-23T22:18:13.144Z,36.13
2019-01-23T22:20:41.827Z,34.07
2019-01-23T22:23:10.366Z,33.13
2019-01-23T22:25:38.901Z,35.20
2019-01-23T22:28:07.904Z,33.87
2019-01-23T22:30:36.589Z,36.07
2019-01-23T22:33:05.483Z,37.97
2019-01-23T22:35:34.039Z,33.43
2019-01-23T22:38:02.576Z,33.53
2019-01-23T22:40:31.141Z,34.03
2019-01-23T22:42:59.737Z,33.93
2019-01-23T22:45:28.328Z,36.60
2019-01-23T22:47:56.802Z,35.93
2019-01-23T22:50:27.031Z,35.03
2019-01-23T22:52:55.567Z,36.50
2019-01-23T22:55:24.035Z,31.73
2019-01-23T22:57:52.606Z,32.43
2019-01-23T23:00:31.799Z,34.90
2019-01-23T23:03:00.980Z,34.40
2019-01-23T23:05:29.604Z,34.93
2019-01-23T23:07:58.128Z,37.00
2019-01-23T23:10:26.792Z,37.57
2019-01-23T23:12:56.189Z,36.90
2019-01-23T23:15:24.796Z,35.40
2019-01-23T23:17:53.302Z,33.93
2019-01-23T23:20:21.836Z,36.17
2019-01-23T23:22:50.369Z,41.23
2019-01-23T23:25:18.907Z,36.97
2019-01-23T23:27:47.367Z,36.43
2019-01-23T23:30:21.190Z,33.47
2019-01-23T23:32:49.783Z,40.37
2019-01-23T23:35:18.240Z,37.67
2019-01-23T23:37:46.704Z,35.87
2019-01-23T23:40:16.079Z,37.93
2019-01-23T23:42:44.920Z,38.97
2019-01-23T23:45:15.764Z,36.77
2019-01-23T23:47:44.356Z,38.73
2019-01-23T23:50:17.404Z,38.97
2019-01-23T23:52:46.310Z,36.67
2019-01-23T23:55:16.244Z,36.27
2019-01-23T23:57:45.067Z,36.23
